createdAt,value
2023-03-18T00:04:14.249Z,25.25
2023-03-18T00:09:29.773Z,22.40
2023-03-18T00:14:46.709Z,24.77
2023-03-18T00:20:07.074Z,22.88
2023-03-18T00:25:23.110Z,28.10
2023-03-18T00:30:40.404Z,20.90
2023-03-18T00:35:56.227Z,26.42
2023-03-18T00:41:16.910Z,19.48
2023-03-18T00:46:36.472Z,18.90
2023-03-18T00:51:52.221Z,14.65
2023-03-18T00:57:08.117Z,19.33
2023-03-18T01:02:25.261Z,16.73
2023-03-18T01:07:41.725Z,13.25
2023-03-18T01:12:58.907Z,15.55
2023-03-18T01:18:15.523Z,15.25
2023-03-18T01:23:31.898Z,11.90
2023-03-18T01:28:48.381Z,18.40
2023-03-18T01:34:04.279Z,18.27
2023-03-18T01:39:20.978Z,17.65
2023-03-18T01:44:37.685Z,17.60
2023-03-18T01:49:53.399Z,13.75
2023-03-18T01:55:20.365Z,22.52
2023-03-18T02:00:41.871Z,11.43
2023-03-18T02:05:58.037Z,13.40
2023-03-18T02:11:14.566Z,13.57
2023-03-18T02:17:13.531Z,15.40
2023-03-18T02:22:34.355Z,25.00
2023-03-18T02:27:56.448Z,22.90
2023-03-18T02:33:16.140Z,10.57
2023-03-18T02:38:32.770Z,14.73
2023-03-18T02:43:49.797Z,18.83
2023-03-18T02:49:08.051Z,13.65
2023-03-18T02:54:27.810Z,11.73
2023-03-18T02:59:43.637Z,16.45
2023-03-18T03:05:00.812Z,12.88
2023-03-18T03:10:17.128Z,15.25
2023-03-18T03:15:33.254Z,13.82
2023-03-18T03:20:50.374Z,17.80
2023-03-18T03:26:07.316Z,14.70
2023-03-18T03:31:24.456Z,13.95
2023-03-18T03:36:40.150Z,16.85
2023-03-18T03:41:56.019Z,25.42
2023-03-18T03:47:11.533Z,15.18
2023-03-18T03:52:29.070Z,14.55
2023-03-18T03:57:46.195Z,17.52
2023-03-18T04:03:01.883Z,15.95
2023-03-18T04:08:17.737Z,25.13
2023-03-18T04:13:34.406Z,11.77
2023-03-18T04:18:50.360Z,21.95
2023-03-18T04:24:06.828Z,12.60
2023-03-18T04:29:23.165Z,15.07
2023-03-18T04:34:38.903Z,9.23
2023-03-18T04:39:54.610Z,9.90
2023-03-18T04:45:11.118Z,12.77
2023-03-18T04:50:28.122Z,13.40
2023-03-18T04:55:44.607Z,11.63
2023-03-18T05:01:00.746Z,17.92
2023-03-18T05:06:30.344Z,18.08
2023-03-18T05:11:46.382Z,11.60
2023-03-18T05:17:04.636Z,13.10
2023-03-18T05:22:22.324Z,16.80
2023-03-18T05:27:39.001Z,16.42
2023-03-18T05:32:55.356Z,20.58
2023-03-18T05:38:11.531Z,9.27
2023-03-18T05:43:28.627Z,20.08
2023-03-18T05:48:44.421Z,12.45
2023-03-18T05:53:59.960Z,19.23
2023-03-18T05:59:16.390Z,15.00
2023-03-18T06:04:32.340Z,16.98
2023-03-18T06:09:47.846Z,12.90
2023-03-18T06:15:03.990Z,12.75
2023-03-18T06:20:19.756Z,13.18
2023-03-18T06:25:35.697Z,13.20
2023-03-18T06:30:55.566Z,14.85
2023-03-18T06:36:11.883Z,22.63
2023-03-18T06:41:28.348Z,19.00
2023-03-18T06:46:44.442Z,14.48
2023-03-18T06:52:00.515Z,8.13
2023-03-18T06:57:16.243Z,8.48
2023-03-18T07:02:32.135Z,12.55
2023-03-18T07:07:48.748Z,11.10
2023-03-18T07:13:05.237Z,16.38
2023-03-18T07:18:22.041Z,11.27
2023-03-18T07:23:39.287Z,9.75
2023-03-18T07:28:54.861Z,10.85
2023-03-18T07:34:11.980Z,8.90
2023-03-18T07:39:27.797Z,9.70
2023-03-18T07:44:43.215Z,11.35
2023-03-18T07:49:59.406Z,6.47
2023-03-18T07:55:15.716Z,6.00
2023-03-18T08:00:32.569Z,10.93
2023-03-18T08:05:48.494Z,8.27
2023-03-18T08:11:05.123Z,10.73
2023-03-18T08:16:21.097Z,8.63
2023-03-18T08:21:37.062Z,7.82
2023-03-18T08:26:53.226Z,7.03
2023-03-18T08:32:10.167Z,7.57
2023-03-18T08:37:26.312Z,8.43
2023-03-18T08:42:42.142Z,5.15
2023-03-18T08:47:57.995Z,9.52
2023-03-18T08:53:14.023Z,6.88
2023-03-18T08:58:31.461Z,12.07
2023-03-18T09:03:47.503Z,10.65
2023-03-18T09:09:03.656Z,7.38
2023-03-18T09:14:20.060Z,5.25
2023-03-18T09:19:36.919Z,8.82
2023-03-18T09:24:52.755Z,4.80
2023-03-18T09:30:09.672Z,6.15
2023-03-18T09:35:25.596Z,9.20
2023-03-18T09:41:04.252Z,6.25
2023-03-18T09:46:38.653Z,8.27
2023-03-18T09:52:18.477Z,5.60
2023-03-18T09:57:42.972Z,9.13
2023-03-18T10:03:07.067Z,10.32
2023-03-18T10:08:44.380Z,7.20
2023-03-18T10:14:09.444Z,7.88
2023-03-18T10:19:25.565Z,3.80
2023-03-18T10:25:01.712Z,11.43
2023-03-18T10:30:35.332Z,9.20
2023-03-18T10:36:31.627Z,10.40
2023-03-18T10:41:51.709Z,7.60
2023-03-18T10:47:13.537Z,14.10
2023-03-18T10:52:45.693Z,7.95
2023-03-18T10:58:14.991Z,7.85
2023-03-18T11:03:56.726Z,9.82
2023-03-18T11:09:21.117Z,10.38
2023-03-18T11:14:38.036Z,11.25
2023-03-18T11:20:11.142Z,5.90
2023-03-18T11:25:29.415Z,6.30
2023-03-18T11:30:48.769Z,13.27
2023-03-18T11:36:13.586Z,10.07
2023-03-18T11:41:32.446Z,7.22
2023-03-18T11:46:51.361Z,8.98
2023-03-18T11:52:33.782Z,9.63
2023-03-18T11:57:55.705Z,8.55
2023-03-18T12:03:33.412Z,13.07
2023-03-18T12:09:08.637Z,11.88
2023-03-18T12:14:47.446Z,9.63
2023-03-18T12:20:25.790Z,17.08
2023-03-18T12:25:52.379Z,7.25
2023-03-18T12:31:36.808Z,9.23
2023-03-18T12:37:14.233Z,9.85
2023-03-18T12:42:50.087Z,8.80
2023-03-18T12:48:17.714Z,8.48
2023-03-18T12:53:45.859Z,13.43
2023-03-18T12:59:28.027Z,11.95
2023-03-18T13:04:57.022Z,11.02
2023-03-18T13:10:23.614Z,7.72
2023-03-18T13:15:52.919Z,13.77
2023-03-18T13:21:13.664Z,11.80
2023-03-18T13:26:57.174Z,18.60
2023-03-18T13:32:42.987Z,9.90
2023-03-18T13:38:13.431Z,6.90
2023-03-18T13:43:32.413Z,19.70
2023-03-18T13:48:50.149Z,10.55
2023-03-18T13:54:13.325Z,6.95
2023-03-18T13:59:49.895Z,15.88
2023-03-18T14:05:40.714Z,8.60
2023-03-18T14:11:23.260Z,18.02
2023-03-18T14:16:42.481Z,10.00
2023-03-18T14:22:28.634Z,9.98
2023-03-18T14:28:06.966Z,9.32
2023-03-18T14:33:22.910Z,11.75
2023-03-18T14:39:02.270Z,8.98
2023-03-18T14:44:53.623Z,9.88
2023-03-18T14:50:28.842Z,17.08
2023-03-18T14:55:45.212Z,13.18
2023-03-18T15:01:10.023Z,11.73
2023-03-18T15:06:29.400Z,11.88
2023-03-18T15:11:48.003Z,7.10
2023-03-18T15:17:12.712Z,11.25
2023-03-18T15:22:31.822Z,12.75
2023-03-18T15:27:48.724Z,7.05
2023-03-18T15:33:18.239Z,10.85
2023-03-18T15:38:34.414Z,9.57
2023-03-18T15:43:52.244Z,7.00
2023-03-18T15:49:12.400Z,13.43
2023-03-18T15:54:31.285Z,7.68
2023-03-18T15:59:47.055Z,10.68
2023-03-18T16:05:20.593Z,9.40
2023-03-18T16:10:36.254Z,11.43
2023-03-18T16:15:53.536Z,8.73
2023-03-18T16:21:13.506Z,7.63
2023-03-18T16:26:29.103Z,9.55
2023-03-18T16:31:46.219Z,7.82
2023-03-18T16:37:01.959Z,10.98
2023-03-18T16:42:18.057Z,13.65
2023-03-18T16:47:34.099Z,6.85
2023-03-18T16:52:50.624Z,10.13
2023-03-18T16:58:07.059Z,12.60
2023-03-18T17:03:23.388Z,10.57
2023-03-18T17:08:40.264Z,9.57
2023-03-18T17:13:56.495Z,19.98
2023-03-18T17:19:16.750Z,16.13
2023-03-18T17:24:32.575Z,20.73
2023-03-18T17:29:48.896Z,17.63
2023-03-18T17:35:13.532Z,15.77
2023-03-18T17:40:30.498Z,12.48
2023-03-18T17:45:47.141Z,6.13
2023-03-18T17:51:07.456Z,14.68
2023-03-18T17:56:23.492Z,19.38
2023-03-18T18:01:39.617Z,15.23
2023-03-18T18:06:55.608Z,39.97
2023-03-18T18:12:25.508Z,33.92
2023-03-18T18:17:41.708Z,22.17
2023-03-18T18:22:57.893Z,16.13
2023-03-18T18:28:21.929Z,17.60
2023-03-18T18:33:39.921Z,22.25
2023-03-18T18:38:55.575Z,16.85
2023-03-18T18:44:12.085Z,19.13
2023-03-18T18:49:29.238Z,21.17
2023-03-18T18:54:45.462Z,21.17
2023-03-18T19:00:01.188Z,24.20
2023-03-18T19:05:18.801Z,25.33
2023-03-18T19:10:34.797Z,21.35
2023-03-18T19:15:56.305Z,19.75
2023-03-18T19:21:12.286Z,21.40
2023-03-18T19:26:28.280Z,32.47
2023-03-18T19:31:44.978Z,29.20
2023-03-18T19:37:03.050Z,27.45
2023-03-18T19:42:19.165Z,25.92
2023-03-18T19:47:34.906Z,23.85
2023-03-18T19:52:51.171Z,29.13
2023-03-18T19:58:37.705Z,20.27
2023-03-18T20:03:57.770Z,22.23
2023-03-18T20:09:15.138Z,21.33
2023-03-18T20:14:38.290Z,24.73
2023-03-18T20:19:54.110Z,19.48
2023-03-18T20:25:21.093Z,23.48
2023-03-18T20:30:39.263Z,17.65
2023-03-18T20:35:55.030Z,18.92
2023-03-18T20:41:20.225Z,22.42
2023-03-18T20:46:36.784Z,19.10
2023-03-18T20:51:52.721Z,14.13
2023-03-18T20:57:13.092Z,22.65
2023-03-18T21:02:36.402Z,21.73
2023-03-18T21:07:52.823Z,29.13
2023-03-18T21:13:31.039Z,46.70
2023-03-18T21:18:47.765Z,20.95
2023-03-18T21:24:14.742Z,24.38
2023-03-18T21:29:30.846Z,20.52
2023-03-18T21:34:46.853Z,21.15
2023-03-18T21:40:02.733Z,17.27
2023-03-18T21:45:23.049Z,18.23
2023-03-18T21:50:39.919Z,13.97
2023-03-18T21:55:55.997Z,17.17
2023-03-18T22:01:24.535Z,28.75
2023-03-18T22:06:40.517Z,25.52
2023-03-18T22:11:57.607Z,11.65
2023-03-18T22:17:34.548Z,8.65
2023-03-18T22:22:50.356Z,12.93
2023-03-18T22:28:06.329Z,13.30
2023-03-18T22:33:26.825Z,13.50
2023-03-18T22:38:43.327Z,15.43
2023-03-18T22:44:00.468Z,14.68
2023-03-18T22:49:16.427Z,12.43
2023-03-18T22:54:32.287Z,12.88
2023-03-18T22:59:48.328Z,12.55
2023-03-18T23:05:04.363Z,12.82
2023-03-18T23:10:21.240Z,19.13
2023-03-18T23:15:37.201Z,14.88
2023-03-18T23:20:53.285Z,11.50
2023-03-18T23:26:08.868Z,17.08
2023-03-18T23:31:24.889Z,8.95
2023-03-18T23:36:40.542Z,13.82
2023-03-18T23:41:56.169Z,14.95
2023-03-18T23:47:14.004Z,11.90
2023-03-18T23:52:29.669Z,9.52
2023-03-18T23:57:45.533Z,11.40
